sensor_id;sensor_type;location;lat;lon;timestamp;P1;durP1;ratioP1;P2;durP2;ratioP2
65375;SDS011;51976;47.332;9.404;2022-12-07T00:00:25;3.00;;;2.00;;
65375;SDS011;51976;47.332;9.404;2022-12-07T00:02:51;3.10;;;2.30;;
65375;SDS011;51976;47.332;9.404;2022-12-07T00:05:16;3.15;;;2.33;;
65375;SDS011;51976;47.332;9.404;2022-12-07T00:07:41;4.22;;;1.90;;
65375;SDS011;51976;47.332;9.404;2022-12-07T00:10:07;3.30;;;2.08;;
65375;SDS011;51976;47.332;9.404;2022-12-07T00:12:32;2.85;;;2.00;;
65375;SDS011;51976;47.332;9.404;2022-12-07T00:14:58;3.45;;;2.08;;
65375;SDS011;51976;47.332;9.404;2022-12-07T00:17:23;2.58;;;1.77;;
65375;SDS011;51976;47.332;9.404;2022-12-07T00:19:49;2.92;;;1.83;;
65375;SDS011;51976;47.332;9.404;2022-12-07T00:22:14;2.97;;;1.95;;
65375;SDS011;51976;47.332;9.404;2022-12-07T00:24:39;2.80;;;1.98;;
65375;SDS011;51976;47.332;9.404;2022-12-07T00:27:05;2.35;;;1.90;;
65375;SDS011;51976;47.332;9.404;2022-12-07T00:29:30;2.55;;;1.90;;
65375;SDS011;51976;47.332;9.404;2022-12-07T00:31:55;2.15;;;1.85;;
65375;SDS011;51976;47.332;9.404;2022-12-07T00:34:21;3.03;;;1.98;;
65375;SDS011;51976;47.332;9.404;2022-12-07T00:36:46;2.60;;;1.60;;
65375;SDS011;51976;47.332;9.404;2022-12-07T00:39:12;2.83;;;1.90;;
65375;SDS011;51976;47.332;9.404;2022-12-07T00:41:38;2.70;;;1.80;;
65375;SDS011;51976;47.332;9.404;2022-12-07T00:44:03;2.50;;;1.73;;
65375;SDS011;51976;47.332;9.404;2022-12-07T00:46:28;3.15;;;2.05;;
65375;SDS011;51976;47.332;9.404;2022-12-07T00:48:55;2.70;;;1.90;;
65375;SDS011;51976;47.332;9.404;2022-12-07T00:51:21;2.70;;;1.80;;
65375;SDS011;51976;47.332;9.404;2022-12-07T00:53:48;2.25;;;1.75;;
65375;SDS011;51976;47.332;9.404;2022-12-07T00:56:14;2.78;;;1.95;;
65375;SDS011;51976;47.332;9.404;2022-12-07T00:58:42;2.00;;;1.60;;
65375;SDS011;51976;47.332;9.404;2022-12-07T01:01:08;2.47;;;1.77;;
65375;SDS011;51976;47.332;9.404;2022-12-07T01:03:35;2.58;;;1.80;;
65375;SDS011;51976;47.332;9.404;2022-12-07T01:06:00;2.28;;;1.58;;
65375;SDS011;51976;47.332;9.404;2022-12-07T01:08:26;2.83;;;1.95;;
65375;SDS011;51976;47.332;9.404;2022-12-07T01:10:59;2.75;;;1.80;;
65375;SDS011;51976;47.332;9.404;2022-12-07T01:13:26;2.60;;;1.92;;
65375;SDS011;51976;47.332;9.404;2022-12-07T01:15:56;2.72;;;1.70;;
65375;SDS011;51976;47.332;9.404;2022-12-07T01:18:24;2.47;;;1.77;;
65375;SDS011;51976;47.332;9.404;2022-12-07T01:21:05;2.25;;;1.73;;
65375;SDS011;51976;47.332;9.404;2022-12-07T01:23:36;1.98;;;1.60;;
65375;SDS011;51976;47.332;9.404;2022-12-07T01:26:06;2.55;;;1.60;;
65375;SDS011;51976;47.332;9.404;2022-12-07T01:28:35;2.05;;;1.42;;
65375;SDS011;51976;47.332;9.404;2022-12-07T01:31:05;2.65;;;1.70;;
65375;SDS011;51976;47.332;9.404;2022-12-07T01:33:34;2.53;;;1.55;;
65375;SDS011;51976;47.332;9.404;2022-12-07T01:36:04;3.08;;;1.55;;
65375;SDS011;51976;47.332;9.404;2022-12-07T01:38:37;2.13;;;1.50;;
65375;SDS011;51976;47.332;9.404;2022-12-07T01:41:03;2.15;;;1.50;;
65375;SDS011;51976;47.332;9.404;2022-12-07T01:43:29;2.60;;;1.77;;
65375;SDS011;51976;47.332;9.404;2022-12-07T01:45:56;3.95;;;1.70;;
65375;SDS011;51976;47.332;9.404;2022-12-07T01:48:26;2.53;;;1.85;;
65375;SDS011;51976;47.332;9.404;2022-12-07T01:50:54;2.60;;;1.42;;
65375;SDS011;51976;47.332;9.404;2022-12-07T01:53:26;2.30;;;1.50;;
65375;SDS011;51976;47.332;9.404;2022-12-07T01:55:54;1.52;;;1.20;;
65375;SDS011;51976;47.332;9.404;2022-12-07T01:58:21;2.50;;;1.88;;
65375;SDS011;51976;47.332;9.404;2022-12-07T02:00:47;1.98;;;1.63;;
65375;SDS011;51976;47.332;9.404;2022-12-07T02:03:18;1.95;;;1.63;;
65375;SDS011;51976;47.332;9.404;2022-12-07T02:05:49;2.40;;;1.65;;
65375;SDS011;51976;47.332;9.404;2022-12-07T02:08:16;2.60;;;1.73;;
65375;SDS011;51976;47.332;9.404;2022-12-07T02:10:42;2.80;;;1.90;;
65375;SDS011;51976;47.332;9.404;2022-12-07T02:13:18;2.38;;;1.63;;
65375;SDS011;51976;47.332;9.404;2022-12-07T02:16:09;2.15;;;1.60;;
65375;SDS011;51976;47.332;9.404;2022-12-07T02:22:01;3.60;;;1.80;;
65375;SDS011;51976;47.332;9.404;2022-12-07T02:24:54;3.15;;;1.70;;
65375;SDS011;51976;47.332;9.404;2022-12-07T02:27:52;3.13;;;1.90;;
65375;SDS011;51976;47.332;9.404;2022-12-07T02:30:23;2.65;;;1.70;;
65375;SDS011;51976;47.332;9.404;2022-12-07T02:32:57;2.78;;;1.63;;
65375;SDS011;51976;47.332;9.404;2022-12-07T02:35:30;3.35;;;1.27;;
65375;SDS011;51976;47.332;9.404;2022-12-07T02:38:14;2.50;;;1.63;;
65375;SDS011;51976;47.332;9.404;2022-12-07T02:40:48;2.25;;;1.60;;
65375;SDS011;51976;47.332;9.404;2022-12-07T02:43:19;2.58;;;1.55;;
65375;SDS011;51976;47.332;9.404;2022-12-07T02:45:53;3.00;;;1.80;;
65375;SDS011;51976;47.332;9.404;2022-12-07T02:48:23;2.30;;;1.63;;
65375;SDS011;51976;47.332;9.404;2022-12-07T02:50:51;2.40;;;1.60;;
65375;SDS011;51976;47.332;9.404;2022-12-07T02:53:36;2.38;;;1.58;;
65375;SDS011;51976;47.332;9.404;2022-12-07T02:56:16;2.17;;;1.48;;
65375;SDS011;51976;47.332;9.404;2022-12-07T02:59:02;2.58;;;1.50;;
65375;SDS011;51976;47.332;9.404;2022-12-07T03:01:51;2.10;;;1.52;;
65375;SDS011;51976;47.332;9.404;2022-12-07T03:04:47;2.42;;;1.50;;
65375;SDS011;51976;47.332;9.404;2022-12-07T03:07:39;2.92;;;1.85;;
65375;SDS011;51976;47.332;9.404;2022-12-07T03:10:24;2.00;;;1.38;;
65375;SDS011;51976;47.332;9.404;2022-12-07T03:13:23;2.45;;;1.60;;
65375;SDS011;51976;47.332;9.404;2022-12-07T03:15:53;2.15;;;1.60;;
65375;SDS011;51976;47.332;9.404;2022-12-07T03:18:24;2.00;;;1.45;;
65375;SDS011;51976;47.332;9.404;2022-12-07T03:20:55;2.40;;;1.50;;
65375;SDS011;51976;47.332;9.404;2022-12-07T03:23:26;2.25;;;1.50;;
65375;SDS011;51976;47.332;9.404;2022-12-07T03:25:54;2.88;;;1.67;;
65375;SDS011;51976;47.332;9.404;2022-12-07T03:28:24;2.13;;;1.60;;
65375;SDS011;51976;47.332;9.404;2022-12-07T03:31:04;2.38;;;1.60;;
65375;SDS011;51976;47.332;9.404;2022-12-07T03:33:39;2.17;;;1.45;;
65375;SDS011;51976;47.332;9.404;2022-12-07T03:36:20;2.38;;;1.58;;
65375;SDS011;51976;47.332;9.404;2022-12-07T03:39:04;2.13;;;1.50;;
65375;SDS011;51976;47.332;9.404;2022-12-07T03:41:41;3.00;;;1.77;;
65375;SDS011;51976;47.332;9.404;2022-12-07T03:44:07;2.00;;;1.33;;
65375;SDS011;51976;47.332;9.404;2022-12-07T03:46:36;2.00;;;1.30;;
65375;SDS011;51976;47.332;9.404;2022-12-07T03:49:25;1.80;;;1.42;;
65375;SDS011;51976;47.332;9.404;2022-12-07T03:54:55;2.78;;;1.63;;
65375;SDS011;51976;47.332;9.404;2022-12-07T03:57:27;1.90;;;1.30;;
65375;SDS011;51976;47.332;9.404;2022-12-07T03:59:55;2.17;;;1.45;;
65375;SDS011;51976;47.332;9.404;2022-12-07T04:02:22;1.80;;;1.30;;
65375;SDS011;51976;47.332;9.404;2022-12-07T04:04:50;2.00;;;1.48;;
65375;SDS011;51976;47.332;9.404;2022-12-07T04:07:15;2.55;;;1.40;;
65375;SDS011;51976;47.332;9.404;2022-12-07T04:09:41;2.42;;;1.50;;
65375;SDS011;51976;47.332;9.404;2022-12-07T04:12:06;2.28;;;1.42;;
65375;SDS011;51976;47.332;9.404;2022-12-07T04:14:32;1.95;;;1.50;;
65375;SDS011;51976;47.332;9.404;2022-12-07T04:16:58;2.25;;;1.20;;
65375;SDS011;51976;47.332;9.404;2022-12-07T04:19:25;2.22;;;1.60;;
65375;SDS011;51976;47.332;9.404;2022-12-07T04:21:52;2.28;;;1.42;;
65375;SDS011;51976;47.332;9.404;2022-12-07T04:24:18;2.40;;;1.50;;
65375;SDS011;51976;47.332;9.404;2022-12-07T04:26:44;3.00;;;1.30;;
65375;SDS011;51976;47.332;9.404;2022-12-07T04:29:11;2.42;;;1.50;;
65375;SDS011;51976;47.332;9.404;2022-12-07T04:31:36;2.60;;;1.52;;
65375;SDS011;51976;47.332;9.404;2022-12-07T04:34:02;2.17;;;1.38;;
65375;SDS011;51976;47.332;9.404;2022-12-07T04:36:29;1.60;;;1.20;;
65375;SDS011;51976;47.332;9.404;2022-12-07T04:38:55;2.42;;;1.38;;
65375;SDS011;51976;47.332;9.404;2022-12-07T04:41:21;2.10;;;1.25;;
65375;SDS011;51976;47.332;9.404;2022-12-07T04:43:52;3.03;;;1.45;;
65375;SDS011;51976;47.332;9.404;2022-12-07T04:46:20;2.20;;;1.58;;
65375;SDS011;51976;47.332;9.404;2022-12-07T04:48:45;1.90;;;1.40;;
65375;SDS011;51976;47.332;9.404;2022-12-07T04:51:10;2.45;;;1.20;;
65375;SDS011;51976;47.332;9.404;2022-12-07T04:53:36;2.33;;;1.42;;
65375;SDS011;51976;47.332;9.404;2022-12-07T04:56:01;2.78;;;1.52;;
65375;SDS011;51976;47.332;9.404;2022-12-07T04:58:26;2.33;;;1.50;;
65375;SDS011;51976;47.332;9.404;2022-12-07T05:00:53;1.73;;;1.27;;
65375;SDS011;51976;47.332;9.404;2022-12-07T05:03:20;2.35;;;1.60;;
65375;SDS011;51976;47.332;9.404;2022-12-07T05:05:45;2.60;;;1.60;;
65375;SDS011;51976;47.332;9.404;2022-12-07T05:08:10;3.65;;;1.50;;
65375;SDS011;51976;47.332;9.404;2022-12-07T05:10:36;2.22;;;1.20;;
65375;SDS011;51976;47.332;9.404;2022-12-07T05:13:01;2.38;;;1.35;;
65375;SDS011;51976;47.332;9.404;2022-12-07T05:15:27;2.38;;;1.50;;
65375;SDS011;51976;47.332;9.404;2022-12-07T05:17:52;2.60;;;1.77;;
65375;SDS011;51976;47.332;9.404;2022-12-07T05:20:17;2.63;;;1.48;;
65375;SDS011;51976;47.332;9.404;2022-12-07T05:22:43;2.38;;;1.52;;
65375;SDS011;51976;47.332;9.404;2022-12-07T05:25:08;1.90;;;1.20;;
65375;SDS011;51976;47.332;9.404;2022-12-07T05:27:34;2.38;;;1.60;;
65375;SDS011;51976;47.332;9.404;2022-12-07T05:29:59;2.13;;;1.58;;
65375;SDS011;51976;47.332;9.404;2022-12-07T05:32:24;2.55;;;1.58;;
65375;SDS011;51976;47.332;9.404;2022-12-07T05:34:50;2.90;;;1.70;;
65375;SDS011;51976;47.332;9.404;2022-12-07T05:37:15;1.98;;;1.40;;
65375;SDS011;51976;47.332;9.404;2022-12-07T05:39:41;2.20;;;1.45;;
65375;SDS011;51976;47.332;9.404;2022-12-07T05:42:08;2.40;;;1.50;;
65375;SDS011;51976;47.332;9.404;2022-12-07T05:44:41;2.53;;;1.50;;
65375;SDS011;51976;47.332;9.404;2022-12-07T05:47:08;2.92;;;1.58;;
65375;SDS011;51976;47.332;9.404;2022-12-07T05:49:33;2.72;;;1.30;;
65375;SDS011;51976;47.332;9.404;2022-12-07T05:51:59;2.88;;;1.65;;
65375;SDS011;51976;47.332;9.404;2022-12-07T05:54:24;1.98;;;1.20;;
65375;SDS011;51976;47.332;9.404;2022-12-07T05:56:50;2.28;;;1.35;;
65375;SDS011;51976;47.332;9.404;2022-12-07T05:59:16;2.15;;;1.50;;
65375;SDS011;51976;47.332;9.404;2022-12-07T06:01:48;2.20;;;1.30;;
65375;SDS011;51976;47.332;9.404;2022-12-07T06:04:17;2.13;;;1.52;;
65375;SDS011;51976;47.332;9.404;2022-12-07T06:06:44;2.00;;;1.38;;
65375;SDS011;51976;47.332;9.404;2022-12-07T06:09:09;2.10;;;1.48;;
65375;SDS011;51976;47.332;9.404;2022-12-07T06:11:35;2.50;;;1.52;;
65375;SDS011;51976;47.332;9.404;2022-12-07T06:14:20;3.05;;;1.60;;
65375;SDS011;51976;47.332;9.404;2022-12-07T06:16:45;2.95;;;1.52;;
65375;SDS011;51976;47.332;9.404;2022-12-07T06:19:11;2.17;;;1.50;;
65375;SDS011;51976;47.332;9.404;2022-12-07T06:21:36;3.38;;;1.85;;
65375;SDS011;51976;47.332;9.404;2022-12-07T06:24:02;2.75;;;1.40;;
65375;SDS011;51976;47.332;9.404;2022-12-07T06:26:27;2.97;;;1.50;;
65375;SDS011;51976;47.332;9.404;2022-12-07T06:28:53;2.65;;;1.60;;
65375;SDS011;51976;47.332;9.404;2022-12-07T06:31:18;2.58;;;1.58;;
65375;SDS011;51976;47.332;9.404;2022-12-07T06:33:44;2.28;;;1.70;;
65375;SDS011;51976;47.332;9.404;2022-12-07T06:36:09;1.83;;;1.30;;
65375;SDS011;51976;47.332;9.404;2022-12-07T06:38:35;2.40;;;1.70;;
65375;SDS011;51976;47.332;9.404;2022-12-07T06:41:00;2.80;;;1.55;;
65375;SDS011;51976;47.332;9.404;2022-12-07T06:43:26;1.80;;;1.50;;
65375;SDS011;51976;47.332;9.404;2022-12-07T06:45:52;1.98;;;1.50;;
65375;SDS011;51976;47.332;9.404;2022-12-07T06:48:17;2.28;;;1.50;;
65375;SDS011;51976;47.332;9.404;2022-12-07T06:50:46;2.38;;;1.55;;
65375;SDS011;51976;47.332;9.404;2022-12-07T06:53:12;3.10;;;1.67;;
65375;SDS011;51976;47.332;9.404;2022-12-07T06:55:38;2.72;;;1.55;;
65375;SDS011;51976;47.332;9.404;2022-12-07T06:58:03;2.35;;;1.40;;
65375;SDS011;51976;47.332;9.404;2022-12-07T07:00:29;2.47;;;1.73;;
65375;SDS011;51976;47.332;9.404;2022-12-07T07:02:55;3.42;;;1.58;;
65375;SDS011;51976;47.332;9.404;2022-12-07T07:05:20;2.00;;;1.58;;
65375;SDS011;51976;47.332;9.404;2022-12-07T07:07:47;2.78;;;1.70;;
65375;SDS011;51976;47.332;9.404;2022-12-07T07:10:15;2.83;;;1.90;;
65375;SDS011;51976;47.332;9.404;2022-12-07T07:12:40;2.20;;;1.60;;
65375;SDS011;51976;47.332;9.404;2022-12-07T07:15:06;2.80;;;1.65;;
65375;SDS011;51976;47.332;9.404;2022-12-07T07:17:32;2.28;;;1.50;;
65375;SDS011;51976;47.332;9.404;2022-12-07T07:19:57;2.17;;;1.67;;
65375;SDS011;51976;47.332;9.404;2022-12-07T07:22:22;2.58;;;1.60;;
65375;SDS011;51976;47.332;9.404;2022-12-07T07:24:48;2.10;;;1.42;;
65375;SDS011;51976;47.332;9.404;2022-12-07T07:27:13;2.38;;;1.60;;
65375;SDS011;51976;47.332;9.404;2022-12-07T07:29:39;3.08;;;1.70;;
65375;SDS011;51976;47.332;9.404;2022-12-07T07:32:04;2.00;;;1.50;;
65375;SDS011;51976;47.332;9.404;2022-12-07T07:34:30;1.88;;;1.35;;
65375;SDS011;51976;47.332;9.404;2022-12-07T07:36:55;2.10;;;1.65;;
65375;SDS011;51976;47.332;9.404;2022-12-07T07:39:20;1.95;;;1.30;;
65375;SDS011;51976;47.332;9.404;2022-12-07T07:41:46;2.20;;;1.75;;
65375;SDS011;51976;47.332;9.404;2022-12-07T07:44:11;1.88;;;1.50;;
65375;SDS011;51976;47.332;9.404;2022-12-07T07:46:37;2.47;;;1.70;;
65375;SDS011;51976;47.332;9.404;2022-12-07T07:49:02;2.65;;;1.58;;
65375;SDS011;51976;47.332;9.404;2022-12-07T07:51:28;2.03;;;1.60;;
65375;SDS011;51976;47.332;9.404;2022-12-07T07:53:53;2.58;;;1.65;;
65375;SDS011;51976;47.332;9.404;2022-12-07T07:56:19;1.77;;;1.33;;
65375;SDS011;51976;47.332;9.404;2022-12-07T07:58:44;2.38;;;1.58;;
65375;SDS011;51976;47.332;9.404;2022-12-07T08:01:09;1.80;;;1.52;;
65375;SDS011;51976;47.332;9.404;2022-12-07T08:03:35;1.95;;;1.40;;
65375;SDS011;51976;47.332;9.404;2022-12-07T08:06:03;2.40;;;1.55;;
65375;SDS011;51976;47.332;9.404;2022-12-07T08:08:29;2.17;;;1.58;;
65375;SDS011;51976;47.332;9.404;2022-12-07T08:10:54;2.25;;;1.35;;
65375;SDS011;51976;47.332;9.404;2022-12-07T08:13:20;1.77;;;1.27;;
65375;SDS011;51976;47.332;9.404;2022-12-07T08:15:46;2.40;;;1.80;;
65375;SDS011;51976;47.332;9.404;2022-12-07T08:18:13;2.70;;;1.75;;
65375;SDS011;51976;47.332;9.404;2022-12-07T08:20:40;2.47;;;1.70;;
65375;SDS011;51976;47.332;9.404;2022-12-07T08:23:06;1.83;;;1.40;;
65375;SDS011;51976;47.332;9.404;2022-12-07T08:25:32;2.90;;;1.67;;
65375;SDS011;51976;47.332;9.404;2022-12-07T08:27:58;1.73;;;1.25;;
65375;SDS011;51976;47.332;9.404;2022-12-07T08:30:26;1.98;;;1.40;;
65375;SDS011;51976;47.332;9.404;2022-12-07T08:32:51;2.35;;;1.67;;
65375;SDS011;51976;47.332;9.404;2022-12-07T08:35:17;2.58;;;1.30;;
65375;SDS011;51976;47.332;9.404;2022-12-07T08:37:43;2.17;;;1.70;;
65375;SDS011;51976;47.332;9.404;2022-12-07T08:40:09;1.77;;;1.40;;
65375;SDS011;51976;47.332;9.404;2022-12-07T08:42:36;2.22;;;1.70;;
65375;SDS011;51976;47.332;9.404;2022-12-07T08:45:08;2.53;;;1.73;;
65375;SDS011;51976;47.332;9.404;2022-12-07T08:47:36;2.28;;;1.75;;
65375;SDS011;51976;47.332;9.404;2022-12-07T08:50:04;2.13;;;1.58;;
65375;SDS011;51976;47.332;9.404;2022-12-07T08:52:33;2.60;;;1.67;;
65375;SDS011;51976;47.332;9.404;2022-12-07T08:54:59;1.98;;;1.50;;
65375;SDS011;51976;47.332;9.404;2022-12-07T08:57:26;2.55;;;1.88;;
65375;SDS011;51976;47.332;9.404;2022-12-07T08:59:53;3.20;;;1.60;;
65375;SDS011;51976;47.332;9.404;2022-12-07T09:02:18;1.95;;;1.42;;
65375;SDS011;51976;47.332;9.404;2022-12-07T09:04:44;2.45;;;1.60;;
65375;SDS011;51976;47.332;9.404;2022-12-07T09:07:09;2.13;;;1.40;;
65375;SDS011;51976;47.332;9.404;2022-12-07T09:09:35;2.25;;;1.75;;
65375;SDS011;51976;47.332;9.404;2022-12-07T09:12:00;2.85;;;1.52;;
65375;SDS011;51976;47.332;9.404;2022-12-07T09:14:26;2.13;;;1.60;;
65375;SDS011;51976;47.332;9.404;2022-12-07T09:16:52;2.45;;;1.50;;
65375;SDS011;51976;47.332;9.404;2022-12-07T09:19:18;2.08;;;1.60;;
65375;SDS011;51976;47.332;9.404;2022-12-07T09:21:43;2.15;;;1.45;;
65375;SDS011;51976;47.332;9.404;2022-12-07T09:24:09;2.53;;;1.70;;
65375;SDS011;51976;47.332;9.404;2022-12-07T09:26:34;1.95;;;1.42;;
65375;SDS011;51976;47.332;9.404;2022-12-07T09:29:00;2.50;;;1.80;;
65375;SDS011;51976;47.332;9.404;2022-12-07T09:31:26;2.65;;;1.65;;
65375;SDS011;51976;47.332;9.404;2022-12-07T09:33:53;3.15;;;1.70;;
65375;SDS011;51976;47.332;9.404;2022-12-07T09:36:20;3.92;;;1.98;;
65375;SDS011;51976;47.332;9.404;2022-12-07T09:38:45;2.45;;;1.77;;
65375;SDS011;51976;47.332;9.404;2022-12-07T09:41:11;2.03;;;1.55;;
65375;SDS011;51976;47.332;9.404;2022-12-07T09:43:36;3.25;;;1.70;;
65375;SDS011;51976;47.332;9.404;2022-12-07T09:46:05;2.67;;;1.90;;
65375;SDS011;51976;47.332;9.404;2022-12-07T09:48:34;2.42;;;1.80;;
65375;SDS011;51976;47.332;9.404;2022-12-07T09:51:02;3.45;;;1.88;;
65375;SDS011;51976;47.332;9.404;2022-12-07T09:53:38;2.08;;;1.50;;
65375;SDS011;51976;47.332;9.404;2022-12-07T09:56:04;3.25;;;1.90;;
65375;SDS011;51976;47.332;9.404;2022-12-07T09:58:30;2.78;;;1.70;;
65375;SDS011;51976;47.332;9.404;2022-12-07T10:01:09;3.08;;;1.50;;
65375;SDS011;51976;47.332;9.404;2022-12-07T10:03:40;2.42;;;1.67;;
65375;SDS011;51976;47.332;9.404;2022-12-07T10:06:10;3.20;;;1.83;;
65375;SDS011;51976;47.332;9.404;2022-12-07T10:08:40;2.55;;;1.80;;
65375;SDS011;51976;47.332;9.404;2022-12-07T10:11:06;2.92;;;2.20;;
65375;SDS011;51976;47.332;9.404;2022-12-07T10:13:39;2.60;;;1.58;;
65375;SDS011;51976;47.332;9.404;2022-12-07T10:19:16;2.83;;;1.70;;
65375;SDS011;51976;47.332;9.404;2022-12-07T10:22:10;2.42;;;1.67;;
65375;SDS011;51976;47.332;9.404;2022-12-07T10:24:35;3.30;;;1.90;;
65375;SDS011;51976;47.332;9.404;2022-12-07T10:27:04;2.60;;;1.67;;
65375;SDS011;51976;47.332;9.404;2022-12-07T10:29:30;2.22;;;1.73;;
65375;SDS011;51976;47.332;9.404;2022-12-07T10:32:05;3.08;;;1.80;;
65375;SDS011;51976;47.332;9.404;2022-12-07T10:34:49;2.35;;;1.65;;
65375;SDS011;51976;47.332;9.404;2022-12-07T10:37:16;2.47;;;1.80;;
65375;SDS011;51976;47.332;9.404;2022-12-07T10:39:44;2.60;;;1.67;;
65375;SDS011;51976;47.332;9.404;2022-12-07T10:42:19;2.63;;;1.73;;
65375;SDS011;51976;47.332;9.404;2022-12-07T10:45:12;2.85;;;1.60;;
65375;SDS011;51976;47.332;9.404;2022-12-07T10:47:44;2.75;;;1.60;;
65375;SDS011;51976;47.332;9.404;2022-12-07T10:50:47;2.13;;;1.70;;
65375;SDS011;51976;47.332;9.404;2022-12-07T10:53:19;1.77;;;1.45;;
65375;SDS011;51976;47.332;9.404;2022-12-07T10:59:02;2.38;;;1.88;;
65375;SDS011;51976;47.332;9.404;2022-12-07T11:01:54;2.15;;;1.60;;
65375;SDS011;51976;47.332;9.404;2022-12-07T11:04:30;3.13;;;1.98;;
65375;SDS011;51976;47.332;9.404;2022-12-07T11:07:07;2.47;;;1.77;;
65375;SDS011;51976;47.332;9.404;2022-12-07T11:09:51;2.10;;;1.45;;
65375;SDS011;51976;47.332;9.404;2022-12-07T11:12:42;2.00;;;1.60;;
65375;SDS011;51976;47.332;9.404;2022-12-07T11:18:24;2.03;;;1.70;;
65375;SDS011;51976;47.332;9.404;2022-12-07T11:24:00;2.25;;;1.58;;
65375;SDS011;51976;47.332;9.404;2022-12-07T11:29:47;1.83;;;1.50;;
65375;SDS011;51976;47.332;9.404;2022-12-07T11:32:31;1.90;;;1.50;;
65375;SDS011;51976;47.332;9.404;2022-12-07T11:35:33;2.45;;;1.80;;
65375;SDS011;51976;47.332;9.404;2022-12-07T11:38:10;1.65;;;1.35;;
65375;SDS011;51976;47.332;9.404;2022-12-07T11:40:40;2.25;;;1.45;;
65375;SDS011;51976;47.332;9.404;2022-12-07T11:43:20;2.40;;;1.40;;
65375;SDS011;51976;47.332;9.404;2022-12-07T11:45:58;3.28;;;1.65;;
65375;SDS011;51976;47.332;9.404;2022-12-07T11:48:33;4.43;;;1.80;;
65375;SDS011;51976;47.332;9.404;2022-12-07T11:51:03;1.60;;;1.30;;
65375;SDS011;51976;47.332;9.404;2022-12-07T11:53:36;2.28;;;1.40;;
65375;SDS011;51976;47.332;9.404;2022-12-07T11:56:15;2.70;;;1.38;;
65375;SDS011;51976;47.332;9.404;2022-12-07T11:58:47;2.00;;;1.33;;
65375;SDS011;51976;47.332;9.404;2022-12-07T12:01:56;2.03;;;1.10;;
65375;SDS011;51976;47.332;9.404;2022-12-07T12:04:16;10.88;;;1.45;;
65375;SDS011;51976;47.332;9.404;2022-12-07T12:06:52;4.20;;;1.65;;
65375;SDS011;51976;47.332;9.404;2022-12-07T12:09:23;2.17;;;1.50;;
65375;SDS011;51976;47.332;9.404;2022-12-07T12:12:04;2.58;;;1.40;;
65375;SDS011;51976;47.332;9.404;2022-12-07T12:17:52;4.50;;;1.30;;
65375;SDS011;51976;47.332;9.404;2022-12-07T12:20:35;2.33;;;1.33;;
65375;SDS011;51976;47.332;9.404;2022-12-07T12:23:13;2.47;;;1.23;;
65375;SDS011;51976;47.332;9.404;2022-12-07T12:25:54;2.90;;;1.30;;
65375;SDS011;51976;47.332;9.404;2022-12-07T12:28:36;2.30;;;1.13;;
65375;SDS011;51976;47.332;9.404;2022-12-07T12:31:15;20.42;;;4.95;;
65375;SDS011;51976;47.332;9.404;2022-12-07T12:33:57;15.02;;;3.45;;
65375;SDS011;51976;47.332;9.404;2022-12-07T12:36:43;11.73;;;3.67;;
65375;SDS011;51976;47.332;9.404;2022-12-07T12:39:12;17.83;;;4.30;;
65375;SDS011;51976;47.332;9.404;2022-12-07T12:41:54;12.38;;;3.58;;
65375;SDS011;51976;47.332;9.404;2022-12-07T12:44:38;10.75;;;3.65;;
65375;SDS011;51976;47.332;9.404;2022-12-07T12:50:17;12.02;;;3.05;;
65375;SDS011;51976;47.332;9.404;2022-12-07T12:52:51;8.82;;;3.00;;
65375;SDS011;51976;47.332;9.404;2022-12-07T12:55:29;7.45;;;2.90;;
65375;SDS011;51976;47.332;9.404;2022-12-07T12:58:25;8.88;;;3.00;;
65375;SDS011;51976;47.332;9.404;2022-12-07T13:04:01;6.13;;;2.20;;
65375;SDS011;51976;47.332;9.404;2022-12-07T13:06:38;8.48;;;2.95;;
65375;SDS011;51976;47.332;9.404;2022-12-07T13:09:14;8.50;;;2.70;;
65375;SDS011;51976;47.332;9.404;2022-12-07T13:11:46;7.03;;;2.28;;
65375;SDS011;51976;47.332;9.404;2022-12-07T13:14:41;3.67;;;1.80;;
65375;SDS011;51976;47.332;9.404;2022-12-07T13:17:56;6.53;;;2.60;;
65375;SDS011;51976;47.332;9.404;2022-12-07T13:20:40;7.00;;;2.95;;
65375;SDS011;51976;47.332;9.404;2022-12-07T13:23:08;5.28;;;2.10;;
65375;SDS011;51976;47.332;9.404;2022-12-07T13:25:36;5.97;;;2.20;;
65375;SDS011;51976;47.332;9.404;2022-12-07T13:28:13;7.35;;;2.13;;
65375;SDS011;51976;47.332;9.404;2022-12-07T13:30:46;10.45;;;3.22;;
65375;SDS011;51976;47.332;9.404;2022-12-07T13:33:23;16.02;;;3.25;;
65375;SDS011;51976;47.332;9.404;2022-12-07T13:35:55;10.98;;;3.90;;
65375;SDS011;51976;47.332;9.404;2022-12-07T13:38:25;11.38;;;3.60;;
65375;SDS011;51976;47.332;9.404;2022-12-07T13:41:01;18.80;;;3.65;;
65375;SDS011;51976;47.332;9.404;2022-12-07T13:43:27;12.13;;;4.00;;
65375;SDS011;51976;47.332;9.404;2022-12-07T13:45:58;20.35;;;4.47;;
65375;SDS011;51976;47.332;9.404;2022-12-07T13:48:32;10.10;;;4.00;;
65375;SDS011;51976;47.332;9.404;2022-12-07T13:51:01;11.48;;;3.60;;
65375;SDS011;51976;47.332;9.404;2022-12-07T13:53:28;10.95;;;3.20;;
65375;SDS011;51976;47.332;9.404;2022-12-07T13:55:56;14.25;;;3.22;;
65375;SDS011;51976;47.332;9.404;2022-12-07T13:58:23;12.48;;;3.03;;
65375;SDS011;51976;47.332;9.404;2022-12-07T14:00:49;10.63;;;3.30;;
65375;SDS011;51976;47.332;9.404;2022-12-07T14:03:26;10.65;;;3.88;;
65375;SDS011;51976;47.332;9.404;2022-12-07T14:06:05;14.65;;;3.20;;
65375;SDS011;51976;47.332;9.404;2022-12-07T14:08:42;11.57;;;3.85;;
65375;SDS011;51976;47.332;9.404;2022-12-07T14:11:15;11.18;;;3.35;;
65375;SDS011;51976;47.332;9.404;2022-12-07T14:13:55;11.77;;;3.17;;
65375;SDS011;51976;47.332;9.404;2022-12-07T14:16:28;9.88;;;2.78;;
65375;SDS011;51976;47.332;9.404;2022-12-07T14:18:56;7.78;;;3.15;;
65375;SDS011;51976;47.332;9.404;2022-12-07T14:21:27;9.52;;;3.17;;
65375;SDS011;51976;47.332;9.404;2022-12-07T14:24:07;12.65;;;3.20;;
65375;SDS011;51976;47.332;9.404;2022-12-07T14:26:48;7.97;;;2.90;;
65375;SDS011;51976;47.332;9.404;2022-12-07T14:29:27;8.25;;;2.80;;
65375;SDS011;51976;47.332;9.404;2022-12-07T14:31:56;6.88;;;3.00;;
65375;SDS011;51976;47.332;9.404;2022-12-07T14:34:23;8.35;;;3.17;;
65375;SDS011;51976;47.332;9.404;2022-12-07T14:36:49;6.78;;;2.50;;
65375;SDS011;51976;47.332;9.404;2022-12-07T14:39:15;6.30;;;2.50;;
65375;SDS011;51976;47.332;9.404;2022-12-07T14:41:40;10.55;;;2.45;;
65375;SDS011;51976;47.332;9.404;2022-12-07T14:44:18;5.10;;;2.10;;
65375;SDS011;51976;47.332;9.404;2022-12-07T14:46:46;5.57;;;2.40;;
65375;SDS011;51976;47.332;9.404;2022-12-07T14:49:12;8.05;;;2.30;;
65375;SDS011;51976;47.332;9.404;2022-12-07T14:51:38;7.10;;;2.47;;
65375;SDS011;51976;47.332;9.404;2022-12-07T14:54:06;7.95;;;2.30;;
65375;SDS011;51976;47.332;9.404;2022-12-07T14:56:36;4.60;;;2.30;;
65375;SDS011;51976;47.332;9.404;2022-12-07T14:59:08;4.57;;;2.30;;
65375;SDS011;51976;47.332;9.404;2022-12-07T15:01:33;5.85;;;2.40;;
65375;SDS011;51976;47.332;9.404;2022-12-07T15:03:59;7.00;;;2.20;;
65375;SDS011;51976;47.332;9.404;2022-12-07T15:06:24;7.35;;;2.42;;
65375;SDS011;51976;47.332;9.404;2022-12-07T15:08:49;4.32;;;1.92;;
65375;SDS011;51976;47.332;9.404;2022-12-07T15:11:15;5.40;;;2.00;;
65375;SDS011;51976;47.332;9.404;2022-12-07T15:13:42;4.20;;;1.90;;
65375;SDS011;51976;47.332;9.404;2022-12-07T15:16:28;3.53;;;1.98;;
65375;SDS011;51976;47.332;9.404;2022-12-07T15:18:53;4.85;;;2.03;;
65375;SDS011;51976;47.332;9.404;2022-12-07T15:21:18;5.10;;;2.10;;
65375;SDS011;51976;47.332;9.404;2022-12-07T15:23:44;5.45;;;2.22;;
65375;SDS011;51976;47.332;9.404;2022-12-07T15:26:11;7.18;;;1.98;;
65375;SDS011;51976;47.332;9.404;2022-12-07T15:28:37;3.47;;;2.00;;
65375;SDS011;51976;47.332;9.404;2022-12-07T15:31:02;6.63;;;2.08;;
65375;SDS011;51976;47.332;9.404;2022-12-07T15:33:28;6.28;;;2.22;;
65375;SDS011;51976;47.332;9.404;2022-12-07T15:35:53;5.00;;;2.10;;